createdAt,value
2023-02-01T00:00:05.000Z,7.9
2023-02-01T00:01:21.000Z,7.2
2023-02-01T00:02:38.000Z,6.9
2023-02-01T00:03:54.000Z,7.5
2023-02-01T00:05:10.000Z,8.5
2023-02-01T00:06:25.000Z,8.3
2023-02-01T00:07:41.000Z,7.4
2023-02-01T00:08:57.000Z,7.6
2023-02-01T00:10:13.000Z,8.5
2023-02-01T00:11:30.000Z,8
2023-02-01T00:12:46.000Z,7.7
2023-02-01T00:14:02.000Z,7.2
2023-02-01T00:15:18.000Z,6.7
2023-02-01T00:16:34.000Z,7.6
2023-02-01T00:17:50.000Z,7.2
2023-02-01T00:19:07.000Z,7.2
2023-02-01T00:20:23.000Z,7.4
2023-02-01T00:21:39.000Z,7.3
2023-02-01T00:22:54.000Z,6.8
2023-02-01T00:24:10.000Z,7.8
2023-02-01T00:25:26.000Z,6.3
2023-02-01T00:26:42.000Z,6.6
2023-02-01T00:27:59.303Z,6.6
2023-02-01T00:29:15.000Z,6.5
2023-02-01T00:30:31.000Z,6.7
2023-02-01T00:31:47.000Z,8.4
2023-02-01T00:33:03.000Z,7.1
2023-02-01T00:34:19.000Z,7.6
2023-02-01T00:35:35.000Z,7.8
2023-02-01T00:36:52.000Z,6.6
2023-02-01T00:38:08.000Z,7.2
2023-02-01T00:39:23.000Z,8.9
2023-02-01T00:40:39.000Z,8.9
2023-02-01T00:41:55.000Z,8.1
2023-02-01T00:43:12.083Z,8.6
2023-02-01T00:44:27.000Z,8.7
2023-02-01T00:45:44.000Z,8.4
2023-02-01T00:47:00.522Z,7.7
2023-02-01T00:48:16.000Z,9.7
2023-02-01T00:49:32.000Z,9.7
2023-02-01T00:50:48.000Z,9.9
2023-02-01T00:52:04.000Z,9.9
2023-02-01T00:53:21.000Z,10
2023-02-01T00:54:37.000Z,9.7
2023-02-01T00:55:52.000Z,9.3
2023-02-01T00:57:08.000Z,9.5
2023-02-01T00:58:24.000Z,8.2
2023-02-01T00:59:40.000Z,10.7
2023-02-01T01:00:56.000Z,10.4
2023-02-01T01:02:13.296Z,10
2023-02-01T01:03:29.000Z,9.1
2023-02-01T01:04:45.000Z,8.9
2023-02-01T01:06:01.000Z,10.2
2023-02-01T01:07:17.000Z,9.6
2023-02-01T01:08:33.000Z,8.1
2023-02-01T01:09:49.000Z,9
2023-02-01T01:11:06.000Z,8.4
2023-02-01T01:12:21.485Z,8.3
2023-02-01T01:13:37.000Z,8.6
2023-02-01T01:14:53.000Z,8.4
2023-02-01T01:16:09.000Z,8.6
2023-02-01T01:17:25.000Z,7.6
2023-02-01T01:18:42.240Z,9.5
2023-02-01T01:19:58.000Z,8.3
2023-02-01T01:21:14.000Z,9.2
2023-02-01T01:22:30.000Z,8.9
2023-02-01T01:23:46.000Z,9.1
2023-02-01T01:25:02.000Z,9.9
2023-02-01T01:26:18.000Z,8.7
2023-02-01T01:27:35.000Z,9
2023-02-01T01:28:50.000Z,9.6
2023-02-01T01:30:06.000Z,9.3
2023-02-01T01:31:22.000Z,9.4
2023-02-01T01:32:38.000Z,8.3
2023-02-01T01:33:54.000Z,8.4
2023-02-01T01:35:10.000Z,9.8
2023-02-01T01:36:26.000Z,7.7
2023-02-01T01:37:42.000Z,8.9
2023-02-01T01:38:58.000Z,8.9
2023-02-01T01:40:14.000Z,9.6
2023-02-01T01:41:30.000Z,8.2
2023-02-01T01:42:46.000Z,7.7
2023-02-01T01:44:02.000Z,9.1
2023-02-01T01:45:19.000Z,9.2
2023-02-01T01:46:35.000Z,9.1
2023-02-01T01:47:51.000Z,8.6
2023-02-01T01:49:07.782Z,8.6
2023-02-01T01:50:23.000Z,8.3
2023-02-01T01:51:39.000Z,7.9
2023-02-01T01:52:55.000Z,8.8
2023-02-01T01:54:11.000Z,8.5
2023-02-01T01:55:27.000Z,8.9
2023-02-01T01:56:43.000Z,8.6
2023-02-01T01:57:59.000Z,9.6
2023-02-01T01:59:15.000Z,8.6
2023-02-01T02:00:31.000Z,8.9
2023-02-01T02:01:48.000Z,7.8
2023-02-01T02:03:04.000Z,8.4
2023-02-01T02:04:20.000Z,8.6
2023-02-01T02:05:36.000Z,8.6
2023-02-01T02:06:52.851Z,8.5
2023-02-01T02:08:08.000Z,8.5
2023-02-01T02:09:23.000Z,8
2023-02-01T02:10:40.000Z,8.5
2023-02-01T02:11:56.000Z,8.3
2023-02-01T02:13:12.000Z,7.8
2023-02-01T02:14:28.000Z,8.9
2023-02-01T02:15:44.000Z,9.2
2023-02-01T02:17:00.000Z,9.4
2023-02-01T02:18:16.000Z,7.8
2023-02-01T02:19:33.000Z,10.2
2023-02-01T02:20:49.000Z,8.9
2023-02-01T02:22:05.000Z,8.4
2023-02-01T02:23:21.000Z,8.5
2023-02-01T02:24:37.927Z,9.7
2023-02-01T02:25:52.000Z,9.2
2023-02-01T02:27:09.000Z,9.2
2023-02-01T02:28:25.000Z,9.1
2023-02-01T02:29:41.000Z,9.8
2023-02-01T02:30:57.000Z,9.8
2023-02-01T02:32:13.000Z,8
2023-02-01T02:33:29.000Z,9.5
2023-02-01T02:34:46.119Z,9.3
2023-02-01T02:36:02.000Z,9.2
2023-02-01T02:37:18.406Z,10.2
2023-02-01T02:38:34.000Z,9.7
2023-02-01T02:39:50.000Z,10
2023-02-01T02:41:06.000Z,10.6
2023-02-01T02:42:21.000Z,9.7
2023-02-01T02:43:37.000Z,10.8
2023-02-01T02:44:54.000Z,9.3
2023-02-01T02:46:10.456Z,9.2
2023-02-01T02:47:26.000Z,11
2023-02-01T02:48:42.000Z,10.4
2023-02-01T02:49:58.000Z,9.3
2023-02-01T02:51:14.000Z,11.1
2023-02-01T02:52:30.000Z,9.1
2023-02-01T02:53:47.000Z,9.9
2023-02-01T02:55:03.000Z,11.4
2023-02-01T02:56:19.000Z,10
2023-02-01T02:57:35.000Z,10
2023-02-01T02:58:50.000Z,9.6
2023-02-01T03:00:06.000Z,10.1
2023-02-01T03:01:22.000Z,8.3
2023-02-01T03:02:39.000Z,9
2023-02-01T03:03:55.000Z,10.5
2023-02-01T03:05:11.000Z,9.6
2023-02-01T03:06:27.000Z,9.5
2023-02-01T03:07:43.000Z,8.9
2023-02-01T03:08:59.000Z,9.6
2023-02-01T03:10:16.000Z,8.6
2023-02-01T03:11:32.000Z,9.1
2023-02-01T03:12:48.000Z,8.1
2023-02-01T03:14:04.000Z,8.6
2023-02-01T03:15:19.000Z,10.1
2023-02-01T03:16:35.000Z,9.6
2023-02-01T03:17:51.000Z,9.5
2023-02-01T03:19:08.000Z,8.3
2023-02-01T03:20:24.000Z,8.6
2023-02-01T03:21:40.000Z,8.9
2023-02-01T03:22:56.000Z,9.8
2023-02-01T03:24:12.000Z,8.3
2023-02-01T03:25:28.000Z,9.5
2023-02-01T03:26:44.000Z,9.5
2023-02-01T03:28:01.000Z,9.1
2023-02-01T03:29:17.000Z,8.9
2023-02-01T03:30:33.000Z,8.6
2023-02-01T03:31:48.000Z,8.7
2023-02-01T03:33:04.000Z,8.1
2023-02-01T03:34:20.000Z,7.3
2023-02-01T03:35:36.000Z,6
2023-02-01T03:36:53.000Z,5.7
2023-02-01T03:38:09.000Z,5.6
2023-02-01T03:39:25.673Z,6.6
2023-02-01T03:40:41.000Z,4.7
2023-02-01T03:41:57.000Z,6.1
2023-02-01T03:43:13.000Z,5
2023-02-01T03:44:30.000Z,5.5
2023-02-01T03:45:46.000Z,4.9
2023-02-01T03:47:02.000Z,5.9
2023-02-01T03:48:17.000Z,6.6
2023-02-01T03:49:33.000Z,5.3
2023-02-01T03:50:49.000Z,6.1
2023-02-01T03:52:05.000Z,5.3
2023-02-01T03:53:22.000Z,6
2023-02-01T03:54:38.000Z,5.6
2023-02-01T03:55:54.000Z,6.7
2023-02-01T03:57:10.000Z,5
2023-02-01T03:58:26.000Z,5.6
2023-02-01T03:59:42.000Z,5.6
2023-02-01T04:00:58.000Z,5.8
2023-02-01T04:02:15.000Z,5.2
2023-02-01T04:03:31.000Z,6.5
2023-02-01T04:04:46.000Z,5.7
2023-02-01T04:06:02.000Z,6.3
2023-02-01T04:07:18.000Z,5.8
2023-02-01T04:08:34.000Z,6.4
2023-02-01T04:09:50.000Z,6.3
2023-02-01T04:11:07.000Z,6.3
2023-02-01T04:12:23.000Z,7
2023-02-01T04:13:39.000Z,6
2023-02-01T04:14:55.000Z,6.1
2023-02-01T04:16:11.000Z,6.8
2023-02-01T04:17:27.000Z,6.6
2023-02-01T04:18:44.000Z,5.9
2023-02-01T04:20:00.000Z,7.3
2023-02-01T04:21:15.000Z,6.2
2023-02-01T04:22:31.000Z,7
2023-02-01T04:23:47.000Z,7.4
2023-02-01T04:25:03.000Z,6.9
2023-02-01T04:26:19.000Z,6.4
2023-02-01T04:27:36.000Z,6.2
2023-02-01T04:28:52.000Z,7.4
2023-02-01T04:30:08.000Z,6.9
2023-02-01T04:31:24.000Z,7.1
2023-02-01T04:32:40.000Z,7.6
2023-02-01T04:33:56.000Z,8.4
2023-02-01T04:35:12.000Z,6.5
2023-02-01T04:36:29.000Z,7
2023-02-01T04:37:44.000Z,6.7
2023-02-01T04:39:00.000Z,6.2
2023-02-01T04:40:16.000Z,6.9
2023-02-01T04:41:32.000Z,7
2023-02-01T04:42:48.000Z,6.1
2023-02-01T04:44:05.225Z,7
2023-02-01T04:45:21.000Z,7.3
2023-02-01T04:46:37.000Z,7.6
2023-02-01T04:47:53.000Z,7.5
2023-02-01T04:49:09.809Z,7.4
2023-02-01T04:50:25.000Z,7.9
2023-02-01T04:51:41.878Z,7.8
2023-02-01T04:52:58.000Z,6.3
2023-02-01T04:54:13.000Z,7.1
2023-02-01T04:55:29.000Z,7.1
2023-02-01T04:56:45.000Z,7.4
2023-02-01T04:58:01.000Z,6.6
2023-02-01T04:59:17.000Z,7
2023-02-01T05:00:33.000Z,5.9
2023-02-01T05:01:50.000Z,6.6
2023-02-01T05:03:06.000Z,5.7
2023-02-01T05:04:22.000Z,6.5
2023-02-01T05:05:38.000Z,7.9
2023-02-01T05:06:54.000Z,6.2
2023-02-01T05:08:10.000Z,6
2023-02-01T05:09:26.000Z,5.4
2023-02-01T05:10:42.000Z,6.6
2023-02-01T05:11:58.000Z,6.1
2023-02-01T05:13:14.000Z,6.7
2023-02-01T05:14:30.000Z,7.5
2023-02-01T05:15:46.000Z,6.2
2023-02-01T05:17:02.000Z,5.6
2023-02-01T05:18:18.000Z,7.1
2023-02-01T05:19:35.372Z,6
2023-02-01T05:20:51.000Z,6.1
2023-02-01T05:22:07.000Z,5.5
2023-02-01T05:23:23.000Z,5.7
2023-02-01T05:24:39.000Z,5.7
2023-02-01T05:25:55.000Z,4
2023-02-01T05:27:11.272Z,3.5
2023-02-01T05:28:27.414Z,3.1
2023-02-01T05:29:43.000Z,3.4
2023-02-01T05:30:59.711Z,3.6
2023-02-01T05:32:15.000Z,5
2023-02-01T05:33:31.000Z,3.5
2023-02-01T05:34:48.156Z,5.1
2023-02-01T05:36:04.000Z,4.5
2023-02-01T05:37:20.000Z,4.5
2023-02-01T05:38:36.000Z,4.4
2023-02-01T05:39:52.000Z,4.5
2023-02-01T05:41:08.000Z,4.8
2023-02-01T05:42:24.000Z,5.6
2023-02-01T05:43:39.000Z,5.7
2023-02-01T05:44:56.000Z,5.3
2023-02-01T05:46:12.000Z,5.7
2023-02-01T05:47:28.844Z,5.2
2023-02-01T05:48:44.000Z,5.3
2023-02-01T05:50:00.000Z,5.7
2023-02-01T05:51:15.000Z,5
2023-02-01T05:52:32.000Z,6.6
2023-02-01T05:53:48.000Z,7.2
2023-02-01T05:55:04.000Z,6.5
2023-02-01T05:56:20.000Z,6
2023-02-01T05:57:36.830Z,7
2023-02-01T05:58:52.000Z,5.8
2023-02-01T06:00:08.000Z,6.9
2023-02-01T06:01:25.283Z,6.4
2023-02-01T06:02:41.000Z,7.5
2023-02-01T06:03:57.000Z,6.4
2023-02-01T06:05:13.000Z,5.2
2023-02-01T06:06:29.868Z,6.4
2023-02-01T06:07:44.000Z,7.8
2023-02-01T06:09:00.000Z,6.5
2023-02-01T06:10:17.000Z,6.4
2023-02-01T06:11:33.000Z,5.8
2023-02-01T06:12:49.623Z,6.7
2023-02-01T06:14:05.000Z,7.6
2023-02-01T06:15:21.902Z,6
2023-02-01T06:16:37.000Z,7.1
2023-02-01T06:17:53.000Z,6.9
2023-02-01T06:19:10.000Z,7
2023-02-01T06:20:26.000Z,7.1
2023-02-01T06:21:42.000Z,6.8
2023-02-01T06:22:58.000Z,7.1
2023-02-01T06:24:13.000Z,6.1
2023-02-01T06:25:29.000Z,7.1
2023-02-01T06:26:46.000Z,6.6
2023-02-01T06:28:02.396Z,6.9
2023-02-01T06:29:18.000Z,5.9
2023-02-01T06:30:34.000Z,6.6
2023-02-01T06:31:50.000Z,6.7
2023-02-01T06:33:06.976Z,6.7
2023-02-01T06:34:22.000Z,6.9
2023-02-01T06:35:39.000Z,8
2023-02-01T06:36:55.000Z,6.2
2023-02-01T06:38:11.000Z,7.6
2023-02-01T06:39:27.000Z,6.7
2023-02-01T06:40:42.000Z,6.5
2023-02-01T06:41:59.015Z,7.3
2023-02-01T06:43:14.000Z,7.5
2023-02-01T06:44:31.310Z,6.5
2023-02-01T06:45:47.000Z,8.2
2023-02-01T06:47:03.000Z,7.9
2023-02-01T06:48:19.000Z,7.4
2023-02-01T06:49:35.000Z,7.8
2023-02-01T06:50:51.000Z,7.3
2023-02-01T06:52:07.000Z,7.5
2023-02-01T06:53:24.000Z,8.1
2023-02-01T06:54:40.000Z,8
2023-02-01T06:55:56.641Z,6.8
2023-02-01T06:57:11.000Z,7.8
2023-02-01T06:58:27.954Z,7.7
2023-02-01T06:59:43.000Z,7.1
2023-02-01T07:01:00.000Z,7.3
2023-02-01T07:02:16.000Z,8
2023-02-01T07:03:32.542Z,8
2023-02-01T07:04:48.000Z,8.5
2023-02-01T07:06:04.000Z,8
2023-02-01T07:07:20.000Z,7
2023-02-01T07:08:37.113Z,7.2
2023-02-01T07:09:53.000Z,7.7
2023-02-01T07:11:09.000Z,7.4
2023-02-01T07:12:25.000Z,8.9
2023-02-01T07:13:40.000Z,8.1
2023-02-01T07:14:56.000Z,8.8
2023-02-01T07:16:12.000Z,8.1
2023-02-01T07:17:28.000Z,9.3
2023-02-01T07:18:45.000Z,7.2
2023-02-01T07:20:01.000Z,8.1
2023-02-01T07:21:17.000Z,8.8
2023-02-01T07:22:33.765Z,7.3
2023-02-01T07:23:49.000Z,7.4
2023-02-01T07:25:05.000Z,8.8
2023-02-01T07:26:21.000Z,8
2023-02-01T07:27:38.000Z,8
2023-02-01T07:28:54.000Z,8.3
2023-02-01T07:30:09.000Z,8.9
2023-02-01T07:31:25.000Z,6.8
2023-02-01T07:32:41.000Z,7.7
2023-02-01T07:33:58.089Z,8.1
2023-02-01T07:35:14.233Z,8.4
2023-02-01T07:36:30.000Z,8.5
2023-02-01T07:37:46.542Z,8.2
2023-02-01T07:39:02.000Z,7.4
2023-02-01T07:40:18.000Z,8.6
2023-02-01T07:41:34.000Z,8.3
2023-02-01T07:42:50.000Z,7.7
2023-02-01T07:44:07.000Z,7.8
2023-02-01T07:45:23.416Z,8.3
2023-02-01T07:46:38.578Z,7
2023-02-01T07:47:54.000Z,6.5
2023-02-01T07:49:10.000Z,6.4
2023-02-01T07:50:27.020Z,6.4
2023-02-01T07:51:42.000Z,7.5
2023-02-01T07:52:59.000Z,6.1
2023-02-01T07:54:15.000Z,7.2
2023-02-01T07:55:31.000Z,6.3
2023-02-01T07:56:47.000Z,6.2
2023-02-01T07:58:03.000Z,6.2
2023-02-01T07:59:19.000Z,6.9
2023-02-01T08:00:36.183Z,6.4
2023-02-01T08:01:52.000Z,6.5
2023-02-01T08:03:07.000Z,7.3
2023-02-01T08:04:23.000Z,6.4
2023-02-01T08:05:39.000Z,7.3
2023-02-01T08:06:55.945Z,6.4
2023-02-01T08:08:11.000Z,7.3
2023-02-01T08:09:28.000Z,5.9
2023-02-01T08:10:44.000Z,6.7
2023-02-01T08:12:00.529Z,7.3
2023-02-01T08:13:16.000Z,6.7
2023-02-01T08:14:32.000Z,6.4
2023-02-01T08:15:48.000Z,7.2
2023-02-01T08:17:04.000Z,5.6
2023-02-01T08:18:21.000Z,5.7
2023-02-01T08:19:36.000Z,6.3
2023-02-01T08:20:52.000Z,6.8
2023-02-01T08:22:08.000Z,6.1
2023-02-01T08:23:24.000Z,6.3
2023-02-01T08:24:40.000Z,6.4
2023-02-01T08:25:56.000Z,6.3
2023-02-01T08:27:13.000Z,6.7
2023-02-01T08:28:29.000Z,6.5
2023-02-01T08:29:45.000Z,7.5
2023-02-01T08:31:01.000Z,7.3
2023-02-01T08:32:17.000Z,7
2023-02-01T08:33:33.000Z,6.4
2023-02-01T08:34:49.000Z,6.3
2023-02-01T08:36:05.000Z,6.7
2023-02-01T08:37:21.000Z,6.9
2023-02-01T08:38:37.000Z,6.2
2023-02-01T08:39:53.000Z,7.8
2023-02-01T08:41:09.000Z,6.5
2023-02-01T08:42:25.000Z,5.4
2023-02-01T08:43:41.000Z,6.5
2023-02-01T08:44:58.368Z,5.9
2023-02-01T08:46:14.000Z,7.2
2023-02-01T08:47:30.000Z,5.6
2023-02-01T08:48:46.000Z,6.6
2023-02-01T08:50:02.000Z,6.3
2023-02-01T08:51:18.000Z,5.7
2023-02-01T08:52:34.000Z,4.9
2023-02-01T08:53:50.000Z,5.6
2023-02-01T08:55:06.000Z,6
2023-02-01T08:56:22.000Z,7.4
2023-02-01T08:57:38.000Z,6
2023-02-01T08:58:54.000Z,6.7
2023-02-01T09:00:10.000Z,7.5
2023-02-01T09:01:27.000Z,7.2
2023-02-01T09:02:43.000Z,7.5
2023-02-01T09:03:59.000Z,6.2
2023-02-01T09:05:15.000Z,6.5
2023-02-01T09:06:31.000Z,6.5
2023-02-01T09:07:47.000Z,6
2023-02-01T09:09:02.000Z,6.2
2023-02-01T09:10:19.000Z,5.5
2023-02-01T09:11:35.000Z,6.3
2023-02-01T09:12:51.000Z,6.6
2023-02-01T09:14:07.000Z,6.3
2023-02-01T09:15:23.000Z,6.1
2023-02-01T09:16:39.000Z,8.2
2023-02-01T09:17:55.000Z,7.2
2023-02-01T09:19:12.000Z,5.7
2023-02-01T09:20:28.481Z,5.7
2023-02-01T09:21:44.000Z,6.4
2023-02-01T09:23:00.000Z,7.2
2023-02-01T09:24:16.000Z,7
2023-02-01T09:25:31.000Z,6.1
2023-02-01T09:26:47.000Z,6.2
2023-02-01T09:28:04.000Z,7.2
2023-02-01T09:29:20.000Z,6.9
2023-02-01T09:30:36.660Z,6.6
2023-02-01T09:31:52.000Z,7.2
2023-02-01T09:33:08.000Z,7.3
2023-02-01T09:34:25.097Z,7.3
2023-02-01T09:35:41.000Z,6
2023-02-01T09:36:57.000Z,6.7
2023-02-01T09:38:13.000Z,5.5
2023-02-01T09:39:29.000Z,7.1
2023-02-01T09:40:45.000Z,7.2
2023-02-01T09:42:00.000Z,7.4
2023-02-01T09:43:16.000Z,7.2
2023-02-01T09:44:33.272Z,6.6
2023-02-01T09:45:49.428Z,6.1
2023-02-01T09:47:05.000Z,6.4
2023-02-01T09:48:21.000Z,6.3
2023-02-01T09:49:37.000Z,6.6
2023-02-01T09:50:53.000Z,7.5
2023-02-01T09:52:09.000Z,5.8
2023-02-01T09:53:26.000Z,6.7
2023-02-01T09:54:42.445Z,6.8
2023-02-01T09:55:58.000Z,6.6
2023-02-01T09:57:14.000Z,5.8
2023-02-01T09:58:29.000Z,6.2
2023-02-01T09:59:46.038Z,6.8
2023-02-01T10:01:01.000Z,6
2023-02-01T10:02:18.000Z,7.2
2023-02-01T10:03:34.482Z,5.6
2023-02-01T10:04:50.000Z,8.1
2023-02-01T10:06:05.794Z,7
2023-02-01T10:07:21.000Z,7.8
2023-02-01T10:08:37.000Z,7.1
2023-02-01T10:09:54.000Z,8.4
2023-02-01T10:11:10.000Z,8.5
2023-02-01T10:12:26.000Z,7.3
2023-02-01T10:13:42.000Z,7.5
2023-02-01T10:14:58.000Z,7
2023-02-01T10:16:14.959Z,8.7
2023-02-01T10:17:30.000Z,7.5
2023-02-01T10:18:47.000Z,7.8
2023-02-01T10:20:03.000Z,8.3
2023-02-01T10:21:19.000Z,7.2
2023-02-01T10:22:34.000Z,8.2
2023-02-01T10:23:50.000Z,8.8
2023-02-01T10:25:06.000Z,8.5
2023-02-01T10:26:22.000Z,7.1
2023-02-01T10:27:39.000Z,8.4
2023-02-01T10:28:55.000Z,7.7
2023-02-01T10:30:11.000Z,6.8
2023-02-01T10:31:27.000Z,8.3
2023-02-01T10:32:43.000Z,7.2
2023-02-01T10:34:00.040Z,7.9
2023-02-01T10:35:16.155Z,7.8
2023-02-01T10:36:32.000Z,6.8
2023-02-01T10:37:48.000Z,8.3
2023-02-01T10:39:03.000Z,7.1
2023-02-01T10:40:19.000Z,7.2
2023-02-01T10:41:35.000Z,6.3
2023-02-01T10:42:52.044Z,7.6
2023-02-01T10:44:07.000Z,8.8
2023-02-01T10:45:24.337Z,7.7
2023-02-01T10:46:40.000Z,7.4
2023-02-01T10:47:56.000Z,5.7
2023-02-01T10:49:12.000Z,6.3
2023-02-01T10:50:28.000Z,6
2023-02-01T10:51:44.000Z,6.1
2023-02-01T10:53:00.000Z,7.3
2023-02-01T10:54:17.000Z,7.8
2023-02-01T10:55:32.000Z,7.1
2023-02-01T10:56:48.000Z,7.7
2023-02-01T10:58:04.000Z,7.2
2023-02-01T10:59:20.000Z,7.2
2023-02-01T11:00:36.000Z,7.7
2023-02-01T11:01:53.252Z,6.8
2023-02-01T11:03:09.000Z,7.5
2023-02-01T11:04:25.000Z,7.4
2023-02-01T11:05:41.000Z,8.3
2023-02-01T11:06:57.000Z,7.6
2023-02-01T11:08:13.000Z,8.4
2023-02-01T11:09:29.000Z,7.9
2023-02-01T11:10:46.000Z,8.4
2023-02-01T11:12:01.428Z,8.8
2023-02-01T11:13:17.000Z,6.8
2023-02-01T11:14:33.000Z,8
2023-02-01T11:15:49.000Z,7.6
2023-02-01T11:17:05.000Z,6.5
2023-02-01T11:18:21.000Z,6.9
2023-02-01T11:19:38.000Z,7.9
2023-02-01T11:20:54.000Z,7.1
2023-02-01T11:22:10.000Z,7.5
2023-02-01T11:23:26.000Z,7.1
2023-02-01T11:24:42.000Z,7.8
2023-02-01T11:25:58.000Z,6.5
2023-02-01T11:27:14.000Z,7.3
2023-02-01T11:28:30.000Z,7.9
2023-02-01T11:29:46.000Z,6.7
2023-02-01T11:31:02.000Z,7.3
2023-02-01T11:32:18.000Z,8.6
2023-02-01T11:33:34.000Z,7.7
2023-02-01T11:34:50.000Z,8.2
2023-02-01T11:36:06.000Z,6.5
2023-02-01T11:37:23.000Z,7.7
2023-02-01T11:38:39.000Z,6.6
2023-02-01T11:39:55.000Z,6.8
2023-02-01T11:41:11.000Z,6.3
2023-02-01T11:42:27.000Z,6.3
2023-02-01T11:43:43.000Z,6.3
2023-02-01T11:44:59.295Z,6.7
2023-02-01T11:46:15.000Z,6.2
2023-02-01T11:47:31.531Z,5.6
2023-02-01T11:48:47.000Z,5.3
2023-02-01T11:50:03.000Z,4.5
2023-02-01T11:51:19.000Z,4.4
2023-02-01T11:52:35.000Z,4.1
2023-02-01T11:53:52.000Z,4.6
2023-02-01T11:55:08.000Z,5
2023-02-01T11:56:24.000Z,3.7
2023-02-01T11:57:40.000Z,3.2
2023-02-01T11:58:56.000Z,4.4
2023-02-01T12:00:12.990Z,4.3
2023-02-01T12:01:27.000Z,3.7
2023-02-01T12:02:44.000Z,3.8
2023-02-01T12:04:00.000Z,3.9
2023-02-01T12:05:16.000Z,3.8
2023-02-01T12:06:32.000Z,3.5
2023-02-01T12:07:48.000Z,3.9
2023-02-01T12:09:04.000Z,3.2
2023-02-01T12:10:20.000Z,3
2023-02-01T12:11:37.000Z,3.1
2023-02-01T12:12:53.000Z,3.8
2023-02-01T12:14:09.000Z,3.8
2023-02-01T12:15:25.000Z,3.8
2023-02-01T12:16:41.000Z,3.4
2023-02-01T12:17:56.000Z,4.2
2023-02-01T12:19:12.000Z,3.7
2023-02-01T12:20:29.000Z,3.5
2023-02-01T12:21:45.000Z,3.5
2023-02-01T12:23:01.000Z,3.4
2023-02-01T12:24:17.000Z,3.9
2023-02-01T12:25:33.000Z,3.7
2023-02-01T12:26:49.000Z,3.6
2023-02-01T12:28:05.000Z,3.5
2023-02-01T12:29:22.000Z,4.5
2023-02-01T12:30:38.529Z,3.6
2023-02-01T12:31:54.000Z,3.8
2023-02-01T12:33:10.000Z,4.2
2023-02-01T12:34:25.000Z,4.4
2023-02-01T12:35:41.000Z,4.2
2023-02-01T12:36:58.000Z,3.5
2023-02-01T12:38:14.000Z,3.2
2023-02-01T12:39:30.000Z,4.6
2023-02-01T12:40:46.000Z,4.3
2023-02-01T12:42:02.000Z,4.3
2023-02-01T12:43:18.000Z,4.4
2023-02-01T12:44:34.000Z,3.9
2023-02-01T12:45:51.000Z,4.7
2023-02-01T12:47:07.000Z,3.8
2023-02-01T12:48:23.000Z,4.5
2023-02-01T12:49:39.000Z,4.3
2023-02-01T12:50:54.000Z,4.3
2023-02-01T12:52:10.000Z,4
2023-02-01T12:53:26.000Z,4.2
2023-02-01T12:54:43.311Z,5
2023-02-01T12:55:59.230Z,4.1
2023-02-01T12:57:15.000Z,4.2
2023-02-01T12:58:31.000Z,5.4
2023-02-01T12:59:47.000Z,4.3
2023-02-01T13:01:03.000Z,4.6
2023-02-01T13:02:19.000Z,3.6
2023-02-01T13:03:36.000Z,3.5
2023-02-01T13:04:52.000Z,4
2023-02-01T13:06:08.000Z,4.2
2023-02-01T13:07:23.000Z,4.2
2023-02-01T13:08:39.000Z,4.8
2023-02-01T13:09:55.000Z,5.3
2023-02-01T13:11:11.000Z,5.6
2023-02-01T13:12:28.000Z,5.8
2023-02-01T13:13:44.000Z,5.3
2023-02-01T13:15:00.000Z,5.4
2023-02-01T13:16:16.000Z,5.8
2023-02-01T13:17:32.000Z,5.5
2023-02-01T13:18:48.000Z,4.8
2023-02-01T13:20:05.000Z,6.6
2023-02-01T13:21:21.000Z,5
2023-02-01T13:22:37.000Z,4.7
2023-02-01T13:23:52.000Z,5.6
2023-02-01T13:25:08.000Z,5.3
2023-02-01T13:26:24.000Z,5.5
2023-02-01T13:27:40.000Z,6.1
2023-02-01T13:28:57.000Z,6.3
2023-02-01T13:30:13.000Z,5.3
2023-02-01T13:31:29.000Z,5.1
2023-02-01T13:32:45.000Z,6.2
2023-02-01T13:34:01.000Z,5.6
2023-02-01T13:35:17.000Z,6.4
2023-02-01T13:36:33.000Z,6.2
2023-02-01T13:37:50.000Z,6.5
2023-02-01T13:39:06.000Z,6
2023-02-01T13:40:21.000Z,5.9
2023-02-01T13:41:37.000Z,5.7
2023-02-01T13:42:53.000Z,6
2023-02-01T13:44:09.000Z,7.1
2023-02-01T13:45:25.000Z,6.9
2023-02-01T13:46:42.000Z,6.6
2023-02-01T13:47:58.000Z,6.7
2023-02-01T13:49:14.000Z,7
2023-02-01T13:50:30.000Z,5.9
2023-02-01T13:51:46.000Z,8
2023-02-01T13:53:02.000Z,6.4
2023-02-01T13:54:18.000Z,6.5
2023-02-01T13:55:35.000Z,7
2023-02-01T13:56:50.000Z,6.8
2023-02-01T13:58:06.653Z,7.1
2023-02-01T13:59:22.000Z,6.8
2023-02-01T14:00:38.000Z,6.1
2023-02-01T14:01:54.000Z,8.1
2023-02-01T14:03:11.000Z,8.1
2023-02-01T14:04:27.000Z,7.1
2023-02-01T14:05:43.000Z,6.3
2023-02-01T14:06:59.000Z,6.7
2023-02-01T14:08:15.000Z,7.5
2023-02-01T14:09:31.986Z,6.4
2023-02-01T14:10:47.000Z,6.2
2023-02-01T14:12:04.000Z,6.5
2023-02-01T14:13:19.000Z,6.6
2023-02-01T14:14:35.000Z,6.4
2023-02-01T14:15:51.000Z,5.4
2023-02-01T14:17:07.000Z,5.9
2023-02-01T14:18:24.005Z,6.8
2023-02-01T14:19:39.000Z,8.2
2023-02-01T14:20:55.000Z,6.6
2023-02-01T14:22:11.000Z,6.7
2023-02-01T14:23:27.000Z,6.6
2023-02-01T14:24:43.751Z,7.9
2023-02-01T14:26:00.028Z,6.2
2023-02-01T14:27:15.000Z,6.6
2023-02-01T14:28:31.000Z,7.4
2023-02-01T14:29:48.000Z,7
2023-02-01T14:31:04.000Z,6.8
2023-02-01T14:32:20.000Z,8.4
2023-02-01T14:33:36.000Z,7
2023-02-01T14:34:52.000Z,6.8
2023-02-01T14:36:08.000Z,7.3
2023-02-01T14:37:23.000Z,6.9
2023-02-01T14:38:40.000Z,6.7
2023-02-01T14:39:56.000Z,7.7
2023-02-01T14:41:12.000Z,7.6
2023-02-01T14:42:28.000Z,6.9
2023-02-01T14:43:44.000Z,7
2023-02-01T14:45:00.000Z,7.5
2023-02-01T14:46:17.000Z,7.6
2023-02-01T14:47:33.000Z,7.3
2023-02-01T14:48:49.000Z,8.1
2023-02-01T14:50:05.000Z,8.4
2023-02-01T14:51:21.000Z,8.2
2023-02-01T14:52:37.000Z,9.3
2023-02-01T14:53:53.144Z,6.7
2023-02-01T14:55:09.276Z,7.7
2023-02-01T14:56:25.000Z,7.4
2023-02-01T14:57:41.000Z,8
2023-02-01T14:58:57.000Z,8.6
2023-02-01T15:00:13.861Z,9.1
2023-02-01T15:01:29.000Z,7.8
2023-02-01T15:02:46.165Z,7.9
2023-02-01T15:04:02.000Z,8.2
2023-02-01T15:05:18.000Z,9.5
2023-02-01T15:06:34.000Z,7.7
2023-02-01T15:07:50.000Z,8.2
2023-02-01T15:09:06.000Z,8
2023-02-01T15:10:21.000Z,8.5
2023-02-01T15:11:37.000Z,9.3
2023-02-01T15:12:54.000Z,9.6
2023-02-01T15:14:10.000Z,9.4
2023-02-01T15:15:26.000Z,8.6
2023-02-01T15:16:42.000Z,7.8
2023-02-01T15:17:58.000Z,9.7
2023-02-01T15:19:14.000Z,9.1
2023-02-01T15:20:30.000Z,7.9
2023-02-01T15:21:47.000Z,8.1
2023-02-01T15:23:03.000Z,7.5
2023-02-01T15:24:19.000Z,8.9
2023-02-01T15:25:35.000Z,8.5
2023-02-01T15:26:50.949Z,8.4
2023-02-01T15:28:06.000Z,9.8
2023-02-01T15:29:23.000Z,9.8
2023-02-01T15:30:39.000Z,8.9
2023-02-01T15:31:55.568Z,8.6
2023-02-01T15:33:11.000Z,8.3
2023-02-01T15:34:27.000Z,7.9
2023-02-01T15:35:43.000Z,9.2
2023-02-01T15:36:59.000Z,8.6
2023-02-01T15:38:16.259Z,9.7
2023-02-01T15:39:32.000Z,9.4
2023-02-01T15:40:48.000Z,9.7
2023-02-01T15:42:04.000Z,8.1
2023-02-01T15:43:19.000Z,8.7
2023-02-01T15:44:35.000Z,10.2
2023-02-01T15:45:51.000Z,8.8
2023-02-01T15:47:08.000Z,9.1
2023-02-01T15:48:24.000Z,8.5
2023-02-01T15:49:40.000Z,8.9
2023-02-01T15:50:56.000Z,8.7
2023-02-01T15:52:12.000Z,9
2023-02-01T15:53:28.000Z,9
2023-02-01T15:54:44.000Z,8.9
2023-02-01T15:56:01.000Z,9.3
2023-02-01T15:57:17.000Z,9.1
2023-02-01T15:58:33.000Z,8.6
2023-02-01T15:59:48.000Z,9.6
2023-02-01T16:01:04.000Z,9.5
2023-02-01T16:02:20.000Z,8.7
2023-02-01T16:03:36.000Z,9.3
2023-02-01T16:04:53.348Z,10.6
2023-02-01T16:06:09.000Z,9.7
2023-02-01T16:07:25.000Z,9.3
2023-02-01T16:08:41.788Z,10
2023-02-01T16:09:57.000Z,10.5
2023-02-01T16:11:13.000Z,9.5
2023-02-01T16:12:29.000Z,10.2
2023-02-01T16:13:46.000Z,9.7
2023-02-01T16:15:02.000Z,9.7
2023-02-01T16:16:17.000Z,9.5
2023-02-01T16:17:33.000Z,10.3
2023-02-01T16:18:49.000Z,10.2
2023-02-01T16:20:05.000Z,10.4
2023-02-01T16:21:22.000Z,8.5
2023-02-01T16:22:38.403Z,8.6
2023-02-01T16:23:54.000Z,8.8
2023-02-01T16:25:10.694Z,10.2
2023-02-01T16:26:26.000Z,9.8
2023-02-01T16:27:42.000Z,8.9
2023-02-01T16:28:58.000Z,11.1
2023-02-01T16:30:15.000Z,13
2023-02-01T16:31:31.000Z,14.8
2023-02-01T16:32:46.000Z,16
2023-02-01T16:34:02.000Z,23.4
2023-02-01T16:35:18.000Z,27.5
2023-02-01T16:36:34.000Z,20.5
2023-02-01T16:37:50.000Z,16.6
2023-02-01T16:39:07.000Z,11.9
2023-02-01T16:40:23.000Z,11.3
2023-02-01T16:41:39.000Z,10.7
2023-02-01T16:42:55.000Z,10.4
2023-02-01T16:44:11.000Z,9.7
2023-02-01T16:45:28.033Z,10.1
2023-02-01T16:46:44.233Z,9.6
2023-02-01T16:48:00.000Z,9.5
2023-02-01T16:49:15.000Z,9.9
2023-02-01T16:50:31.000Z,10.7
2023-02-01T16:51:47.000Z,11.5
2023-02-01T16:53:03.000Z,9.9
2023-02-01T16:54:19.000Z,10.1
2023-02-01T16:55:35.000Z,10.7
2023-02-01T16:56:52.000Z,8.9
2023-02-01T16:58:08.000Z,8.7
2023-02-01T16:59:24.000Z,9.5
2023-02-01T17:00:40.000Z,9.6
2023-02-01T17:01:56.000Z,8.6
2023-02-01T17:03:12.000Z,9.6
2023-02-01T17:04:29.000Z,9.3
2023-02-01T17:05:44.000Z,9.7
2023-02-01T17:07:00.000Z,10.7
2023-02-01T17:08:16.000Z,10.7
2023-02-01T17:09:32.000Z,10.1
2023-02-01T17:10:48.000Z,8.4
2023-02-01T17:12:04.000Z,9.9
2023-02-01T17:13:21.000Z,9.7
2023-02-01T17:14:37.000Z,9.2
2023-02-01T17:15:53.000Z,8.1
2023-02-01T17:17:09.700Z,8.8
2023-02-01T17:18:25.000Z,8.4
2023-02-01T17:19:41.000Z,8.8
2023-02-01T17:20:57.000Z,8.7
2023-02-01T17:22:13.307Z,8.6
2023-02-01T17:23:29.000Z,8.4
2023-02-01T17:24:45.000Z,9.8
2023-02-01T17:26:01.000Z,8.7
2023-02-01T17:27:17.000Z,8.7
2023-02-01T17:28:33.000Z,10
2023-02-01T17:29:49.000Z,9.6
2023-02-01T17:31:06.000Z,9